Time;durP1;ratioP1;P1;durP2;ratioP2;P2;SDS_P1;SDS_P2;PMS_P1;PMS_P2;Temp;Humidity;BMP_temperature;BMP_pressure;BME280_temperature;BME280_humidity;BME280_pressure;Samples;Min_cycle;Max_cycle;Signal;HPM_P1;HPM_P2
2022/11/18 00:02:03;;;;;;;16.30;5.82;;;;;;;21.82;56.52;99131.41;4998481;28;20033;-50
2022/11/18 00:04:28;;;;;;;18.55;6.25;;;;;;;21.82;56.29;99130.59;4997499;28;20052;-50
2022/11/18 00:06:54;;;;;;;15.77;4.90;;;;;;;21.79;56.35;99134.28;4992835;28;20050;-48
2022/11/18 00:09:19;;;;;;;22.58;8.60;;;;;;;21.80;56.56;99141.22;4998741;28;20045;-49
2022/11/18 00:14:28;;;;;;;18.27;6.68;;;;;;;21.80;56.39;99141.22;4996893;28;20053;-53
2022/11/18 00:17:02;;;;;;;15.55;5.10;;;;;;;21.79;56.45;99137.75;4994651;28;20458;-50
2022/11/18 00:19:30;;;;;;;14.18;6.13;;;;;;;21.79;56.43;99140.38;4996059;28;20084;-50
2022/11/18 00:21:56;;;;;;;15.40;5.50;;;;;;;21.78;56.44;99143.13;4995869;28;20112;-49
2022/11/18 00:24:22;;;;;;;14.90;4.60;;;;;;;21.77;56.36;99138.81;4993329;28;20030;-49
2022/11/18 00:26:48;;;;;;;15.40;5.53;;;;;;;21.77;56.37;99134.41;4997292;28;20041;-48
2022/11/18 00:29:13;;;;;;;17.08;6.78;;;;;;;21.77;56.32;99139.66;4993666;28;20042;-51
2022/11/18 00:31:39;;;;;;;17.50;5.60;;;;;;;21.78;56.40;99140.50;4994364;28;20569;-51
2022/11/18 00:34:05;;;;;;;14.38;4.88;;;;;;;21.77;56.42;99144.09;4985779;28;20775;-52
2022/11/18 00:36:31;;;;;;;18.70;6.07;;;;;;;21.76;56.24;99140.63;4996417;28;20041;-52
2022/11/18 00:38:56;;;;;;;12.50;4.10;;;;;;;21.76;56.37;99139.78;4999166;28;20279;-50
2022/11/18 00:41:21;;;;;;;19.77;6.03;;;;;;;21.76;56.29;99145.88;4989427;28;20046;-49
2022/11/18 00:43:47;;;;;;;14.35;4.75;;;;;;;21.76;56.38;99147.66;4991064;28;20041;-49
2022/11/18 00:46:13;;;;;;;12.57;4.68;;;;;;;21.76;56.38;99148.50;4989847;28;20040;-52
2022/11/18 00:48:39;;;;;;;16.40;6.03;;;;;;;21.76;56.31;99152.94;4995821;28;20125;-51
2022/11/18 00:51:12;;;;;;;12.98;4.55;;;;;;;21.76;56.48;99155.56;4994003;28;20775;-49
2022/11/18 00:53:37;;;;;;;6.97;3.67;;;;;;;21.75;56.33;99157.38;4995644;28;20825;-51
2022/11/18 00:56:03;;;;;;;10.18;3.80;;;;;;;21.75;56.38;99167.91;4992876;28;20037;-50
2022/11/18 00:58:29;;;;;;;16.88;6.15;;;;;;;21.74;56.33;99158.31;4993644;28;20091;-49
2022/11/18 01:00:54;;;;;;;14.30;4.68;;;;;;;21.73;56.42;99161.91;4991935;28;20125;-50
2022/11/18 01:03:19;;;;;;;18.40;5.28;;;;;;;21.74;56.51;99162.75;4995087;28;20045;-50
2022/11/18 01:05:45;;;;;;;16.05;5.70;;;;;;;21.72;56.36;99168.13;4992804;28;20045;-49
2022/11/18 01:08:11;;;;;;;13.77;4.20;;;;;;;21.73;56.27;99166.31;4996652;28;20033;-51
2022/11/18 01:10:38;;;;;;;12.48;4.68;;;;;;;21.71;56.52;99169.09;4994948;28;20041;-50
2022/11/18 01:13:21;;;;;;;19.40;5.65;;;;;;;21.72;56.36;99168.13;4992732;28;20042;-51
2022/11/18 01:15:55;;;;;;;14.15;4.53;;;;;;;21.71;56.51;99169.09;4991407;28;20044;-51
2022/11/18 01:18:23;;;;;;;14.38;5.28;;;;;;;21.71;56.32;99176.97;4997106;28;20056;-50
2022/11/18 01:20:48;;;;;;;10.30;3.95;;;;;;;21.71;56.42;99179.59;4991967;28;20065;-52
2022/11/18 01:23:15;;;;;;;9.30;4.03;;;;;;;21.71;56.38;99178.75;4999567;28;20053;-52
2022/11/18 01:25:42;;;;;;;14.15;5.07;;;;;;;21.71;56.55;99181.41;4995916;28;20813;-53
2022/11/18 01:28:08;;;;;;;16.48;5.55;;;;;;;21.70;56.27;99183.19;4995704;28;20072;-51
2022/11/18 01:30:35;;;;;;;17.25;6.80;;;;;;;21.71;56.48;99189.28;4990945;28;20038;-48
2022/11/18 01:33:02;;;;;;;11.57;4.03;;;;;;;21.70;56.35;99190.25;4998024;28;20737;-51
2022/11/18 01:35:28;;;;;;;18.98;6.25;;;;;;;21.69;56.25;99191.22;4995292;28;20042;-52
2022/11/18 01:37:54;;;;;;;11.88;4.35;;;;;;;21.69;56.41;99186.78;5000411;28;20034;-50
2022/11/18 01:40:19;;;;;;;17.02;5.03;;;;;;;21.70;56.28;99190.25;4998361;28;20437;-52
2022/11/18 01:42:45;;;;;;;16.83;5.07;;;;;;;21.69;56.28;99196.47;4997948;28;20062;-52
2022/11/18 01:45:13;;;;;;;8.15;3.30;;;;;;;21.68;56.23;99195.63;5002369;28;20041;-50
2022/11/18 01:47:50;;;;;;;17.35;6.70;;;;;;;21.68;56.36;99203.53;4998611;28;20049;-50
2022/11/18 01:50:18;;;;;;;13.90;4.25;;;;;;;21.68;56.44;99203.53;4996225;28;20569;-51
2022/11/18 01:52:45;;;;;;;9.77;3.53;;;;;;;21.67;56.20;99201.84;5001180;28;20058;-50
2022/11/18 01:55:26;;;;;;;13.35;5.57;;;;;;;21.68;56.19;99205.31;4998379;28;20780;-50
2022/11/18 01:57:59;;;;;;;14.48;5.30;;;;;;;21.67;56.28;99204.47;4994889;28;20042;-49
2022/11/18 02:00:25;;;;;;;16.42;5.93;;;;;;;21.67;56.38;99204.47;4996925;28;20033;-49
2022/11/18 02:02:50;;;;;;;14.40;5.28;;;;;;;21.67;56.48;99209.72;4981487;28;20458;-48
2022/11/18 02:05:16;;;;;;;15.20;4.75;;;;;;;21.66;56.28;99208.06;4991940;28;20046;-51
2022/11/18 02:07:42;;;;;;;14.88;5.50;;;;;;;21.67;56.35;99206.28;4985358;28;20046;-49
2022/11/18 02:10:20;;;;;;;13.38;4.45;;;;;;;21.66;56.35;99215.13;4986570;28;20797;-51
2022/11/18 02:12:45;;;;;;;15.30;6.18;;;;;;;21.66;56.31;99204.59;4986458;28;20076;-48
2022/11/18 02:15:11;;;;;;;9.98;3.67;;;;;;;21.66;56.20;99213.34;5001853;28;20030;-51
2022/11/18 02:18:02;;;;;;;12.68;5.75;;;;;;;21.65;56.37;99209.03;4996558;28;20463;-50
2022/11/18 02:20:29;;;;;;;13.93;4.68;;;;;;;21.65;56.70;99219.53;4995246;28;20042;-49
2022/11/18 02:23:37;;;;;;;15.32;4.85;;;;;;;21.65;56.21;99223.97;4998450;28;20048;-49
2022/11/18 02:26:50;;;;;;;11.75;4.28;;;;;;;21.64;56.36;99228.38;4999383;28;20139;-47
2022/11/18 02:29:25;;;;;;;17.98;6.10;;;;;;;21.65;56.18;99229.22;4997549;28;20034;-53
2022/11/18 02:32:11;;;;;;;14.40;5.05;;;;;;;21.64;56.23;99235.44;4996345;28;20050;-50
2022/11/18 02:34:36;;;;;;;16.25;5.30;;;;;;;21.63;56.29;99242.50;4999610;28;20572;-50
2022/11/18 02:37:05;;;;;;;16.20;6.13;;;;;;;21.62;56.46;99240.81;4994580;28;20042;-52
2022/11/18 02:39:35;;;;;;;13.80;4.78;;;;;;;21.63;56.20;99241.66;4998885;28;20103;-52
2022/11/18 02:42:08;;;;;;;17.20;5.43;;;;;;;21.63;56.24;99241.66;4999981;28;20041;-51
2022/11/18 02:44:37;;;;;;;18.90;6.35;;;;;;;21.62;56.28;99237.34;4996073;28;20041;-50
2022/11/18 02:47:06;;;;;;;15.63;5.68;;;;;;;21.63;56.32;99246.91;4995557;28;21078;-49
2022/11/18 02:49:36;;;;;;;15.20;5.72;;;;;;;21.63;56.45;99245.13;4995125;28;20038;-51
2022/11/18 02:52:04;;;;;;;12.48;4.82;;;;;;;21.62;56.35;99245.22;4995724;28;20049;-49
2022/11/18 02:54:34;;;;;;;13.18;4.57;;;;;;;21.61;56.54;99252.28;4993805;28;20038;-49
2022/11/18 02:57:01;;;;;;;15.10;5.32;;;;;;;21.62;56.32;99250.50;4997490;28;20029;-50
2022/11/18 02:59:27;;;;;;;17.13;6.60;;;;;;;21.60;56.20;99244.53;4993147;28;20048;-49
2022/11/18 03:01:52;;;;;;;10.65;3.88;;;;;;;21.61;56.41;99257.53;4999528;28;20519;-50
2022/11/18 03:04:20;;;;;;;14.05;4.97;;;;;;;21.60;56.33;99249.78;4994061;28;20148;-50
2022/11/18 03:07:00;;;;;;;17.40;5.07;;;;;;;21.61;56.26;99254.09;4998541;28;20168;-50
2022/11/18 03:09:35;;;;;;;16.25;5.35;;;;;;;21.59;56.22;99254.19;4998326;28;20034;-48
2022/11/18 03:12:26;;;;;;;11.75;3.72;;;;;;;21.60;56.38;99252.41;5002051;28;20036;-49
2022/11/18 03:15:05;;;;;;;11.73;4.10;;;;;;;21.60;56.14;99253.25;5003079;28;20058;-50
2022/11/18 03:17:35;;;;;;;14.95;4.28;;;;;;;21.60;56.35;99260.31;4993707;28;20049;-50
2022/11/18 03:20:06;;;;;;;8.48;3.10;;;;;;;21.59;56.27;99264.72;4979832;28;20050;-49
2022/11/18 03:22:37;;;;;;;11.80;3.70;;;;;;;21.59;56.33;99263.88;4985993;28;20038;-50
2022/11/18 03:25:44;;;;;;;12.93;3.80;;;;;;;21.58;56.19;99268.28;4980748;28;20039;-50
2022/11/18 03:28:16;;;;;;;10.60;3.53;;;;;;;21.59;56.20;99269.13;4979474;28;20434;-50
2022/11/18 03:31:07;;;;;;;17.27;6.75;;;;;;;21.58;56.17;99272.75;4977196;28;20609;-54
2022/11/18 03:33:38;;;;;;;11.80;4.50;;;;;;;21.59;56.33;99277.03;4982591;28;20065;-50
2022/11/18 03:36:09;;;;;;;14.38;4.40;;;;;;;21.59;56.27;99282.28;4986272;28;20376;-51
2022/11/18 03:38:38;;;;;;;9.82;3.35;;;;;;;21.59;56.16;99287.53;4987246;28;20118;-47
2022/11/18 03:41:09;;;;;;;13.07;4.43;;;;;;;21.57;56.17;99282.41;4978216;28;20685;-51
2022/11/18 03:43:40;;;;;;;13.20;4.25;;;;;;;21.58;56.28;99297.22;4983029;28;20045;-49
2022/11/18 03:46:11;;;;;;;14.07;4.35;;;;;;;21.58;56.21;99306.94;4983703;28;20100;-49
2022/11/18 03:48:43;;;;;;;12.40;3.92;;;;;;;21.57;56.29;99300.81;4980594;28;20038;-52
2022/11/18 03:51:14;;;;;;;12.82;3.95;;;;;;;21.58;56.21;99304.28;4977419;28;20117;-50
2022/11/18 03:53:45;;;;;;;11.60;3.88;;;;;;;21.57;56.35;99303.44;4986741;28;20136;-53
2022/11/18 03:56:20;;;;;;;12.77;4.22;;;;;;;21.58;56.27;99314.81;4977252;28;20117;-51
2022/11/18 03:58:56;;;;;;;12.02;3.28;;;;;;;21.57;56.20;99315.75;4983270;28;20034;-51
2022/11/18 04:01:47;;;;;;;15.55;4.63;;;;;;;21.56;56.21;99317.53;4984067;28;20077;-48
2022/11/18 04:04:13;;;;;;;12.70;4.18;;;;;;;21.55;55.76;99318.50;4978313;28;20089;-52
2022/11/18 04:06:47;;;;;;;16.20;5.88;;;;;;;21.56;56.12;99329.84;4983241;28;20065;-52
2022/11/18 04:09:18;;;;;;;20.00;8.50;;;;;;;21.55;56.20;99325.53;4978734;28;20568;-51
2022/11/18 04:12:02;;;;;;;19.48;5.97;;;;;;;21.55;56.29;99331.63;4982467;28;20089;-47
2022/11/18 04:14:37;;;;;;;16.77;5.35;;;;;;;21.56;56.12;99335.09;4978233;28;20117;-51
2022/11/18 04:17:21;;;;;;;10.65;4.68;;;;;;;21.55;56.30;99338.69;4978163;28;20031;-49
2022/11/18 04:19:46;;;;;;;12.68;4.57;;;;;;;21.53;56.04;99333.53;4979568;28;20034;-52
2022/11/18 04:22:13;;;;;;;13.10;4.32;;;;;;;21.54;56.31;99334.38;4973726;28;20085;-47
2022/11/18 04:24:38;;;;;;;12.20;4.55;;;;;;;21.54;56.34;99340.47;4974878;28;20036;-50
2022/11/18 04:27:05;;;;;;;14.45;4.80;;;;;;;21.55;56.24;99349.19;4978746;28;20499;-46
2022/11/18 04:29:31;;;;;;;17.75;6.30;;;;;;;21.53;56.17;99346.66;4976583;28;20464;-50
2022/11/18 04:31:57;;;;;;;16.00;5.47;;;;;;;21.53;56.10;99349.28;4978081;28;20034;-51
2022/11/18 04:34:22;;;;;;;13.57;4.78;;;;;;;21.52;56.27;99352.88;4983835;28;20068;-51
2022/11/18 04:36:48;;;;;;;14.00;4.88;;;;;;;21.53;56.17;99358.97;4980526;28;20133;-51
2022/11/18 04:39:13;;;;;;;11.50;5.78;;;;;;;21.53;56.09;99362.44;4980527;28;20041;-52
2022/11/18 04:41:54;;;;;;;13.75;5.47;;;;;;;21.52;56.19;99358.13;4981548;28;20066;-50
2022/11/18 04:44:30;;;;;;;19.38;5.60;;;;;;;21.52;56.34;99355.50;4977340;28;20108;-52
2022/11/18 04:46:56;;;;;;;13.60;5.13;;;;;;;21.52;56.14;99363.38;4983221;28;20042;-47
2022/11/18 04:49:23;;;;;;;19.13;8.00;;;;;;;21.52;56.08;99359.94;4973268;28;20039;-49
2022/11/18 04:51:48;;;;;;;12.23;4.03;;;;;;;21.52;56.26;99363.38;4977024;28;20058;-48
2022/11/18 04:54:14;;;;;;;9.50;3.50;;;;;;;21.53;56.18;99364.22;4979344;28;20125;-51
2022/11/18 04:56:41;;;;;;;12.48;5.38;;;;;;;21.52;56.22;99370.47;4976640;28;20070;-47
2022/11/18 04:59:07;;;;;;;11.90;4.93;;;;;;;21.52;56.35;99375.72;4984131;28;20129;-50
2022/11/18 05:01:33;;;;;;;13.93;5.15;;;;;;;21.51;56.25;99374.03;4976397;28;20526;-52
2022/11/18 05:04:00;;;;;;;15.75;5.47;;;;;;;21.51;56.03;99374.03;4978772;28;20431;-50
2022/11/18 05:06:26;;;;;;;14.80;4.63;;;;;;;21.51;56.17;99384.56;4975024;28;20746;-50
2022/11/18 05:08:52;;;;;;;15.50;4.88;;;;;;;21.51;56.21;99371.41;4978798;28;20044;-49
2022/11/18 05:14:05;;;;;;;13.73;4.45;;;;;;;21.50;56.17;99385.50;4982922;28;20471;-46
2022/11/18 05:16:30;;;;;;;12.80;3.75;;;;;;;21.50;56.08;99380.22;4987385;28;20039;-51
2022/11/18 05:18:55;;;;;;;17.45;5.95;;;;;;;21.50;56.12;99380.22;4981570;28;20076;-50
2022/11/18 05:21:21;;;;;;;11.70;4.60;;;;;;;21.49;56.23;99379.38;4977309;28;20045;-51
2022/11/18 05:23:46;;;;;;;13.60;4.88;;;;;;;21.49;56.24;99389.09;4981680;28;20406;-52
2022/11/18 05:26:11;;;;;;;11.70;4.15;;;;;;;21.48;56.29;99396.13;4980026;28;20559;-52
2022/11/18 05:28:37;;;;;;;11.80;4.45;;;;;;;21.49;56.34;99402.25;4979986;28;20158;-50
2022/11/18 05:31:07;;;;;;;11.88;4.47;;;;;;;21.48;56.07;99403.19;4978888;28;20038;-52
2022/11/18 05:33:33;;;;;;;15.50;5.70;;;;;;;21.49;56.07;99416.19;4984338;28;20051;-52
2022/11/18 05:36:12;;;;;;;15.32;5.25;;;;;;;21.48;56.15;99408.44;4980884;28;20038;-52
2022/11/18 05:38:37;;;;;;;12.57;4.78;;;;;;;21.49;56.02;99415.38;4983019;28;20046;-47
2022/11/18 05:41:04;;;;;;;11.57;4.45;;;;;;;21.48;56.30;99416.31;4977829;28;20088;-49
2022/11/18 05:43:30;;;;;;;12.35;4.93;;;;;;;21.48;56.22;99419.81;4979056;28;20803;-50
2022/11/18 05:45:56;;;;;;;17.15;5.35;;;;;;;21.47;56.05;99419.91;4979635;28;20451;-52
2022/11/18 05:48:22;;;;;;;16.58;5.30;;;;;;;21.48;56.06;99422.44;4978366;28;20034;-53
2022/11/18 05:50:51;;;;;;;11.63;4.40;;;;;;;21.50;55.91;99420.53;4970581;28;20112;-51
2022/11/18 05:53:19;;;;;;;8.88;3.38;;;;;;;21.53;55.88;99422.06;4981033;28;20039;-49
2022/11/18 05:55:47;;;;;;;12.35;4.32;;;;;;;21.57;55.97;99420.94;4980116;28;20046;-49
2022/11/18 05:58:12;;;;;;;14.18;4.20;;;;;;;21.60;55.71;99418.06;4978874;28;20189;-47
2022/11/18 06:00:38;;;;;;;14.77;5.32;;;;;;;21.65;55.75;99426.44;4977094;28;20038;-52
2022/11/18 06:03:11;;;;;;;13.20;3.97;;;;;;;21.68;55.78;99420.97;4979127;28;20037;-52
2022/11/18 06:05:37;;;;;;;15.75;6.07;;;;;;;21.70;55.30;99425.16;4977932;28;20073;-51
2022/11/18 06:08:02;;;;;;;14.07;4.95;;;;;;;21.74;55.56;99423.97;4980261;28;20169;-51
2022/11/18 06:10:35;;;;;;;17.50;6.28;;;;;;;21.76;55.47;99427.31;4978936;28;20047;-51
2022/11/18 06:13:04;;;;;;;11.80;3.67;;;;;;;21.80;55.44;99433.19;4980139;28;20034;-50
2022/11/18 06:15:39;;;;;;;10.05;3.75;;;;;;;21.82;55.40;99437.38;4982844;28;20153;-47
2022/11/18 06:18:15;;;;;;;20.83;5.18;;;;;;;21.86;55.43;99443.25;4976677;28;20057;-47
2022/11/18 06:20:41;;;;;;;14.00;4.85;;;;;;;21.92;55.63;99441.94;4976585;28;20137;-48
2022/11/18 06:23:06;;;;;;;16.30;5.65;;;;;;;21.98;55.75;99452.84;4973337;28;20365;-49
2022/11/18 06:25:32;;;;;;;14.35;5.13;;;;;;;22.00;55.75;99456.19;4982291;28;20137;-47
2022/11/18 06:28:01;;;;;;;14.35;4.95;;;;;;;22.04;55.48;99462.06;4984049;28;20518;-47
2022/11/18 06:30:26;;;;;;;20.58;6.57;;;;;;;22.09;55.40;99465.19;4983441;28;20495;-45
2022/11/18 06:32:51;;;;;;;10.60;3.13;;;;;;;22.13;54.95;99459.59;4983664;28;20034;-45
2022/11/18 06:35:17;;;;;;;16.85;5.57;;;;;;;22.15;54.94;99464.72;4975640;28;20101;-46
2022/11/18 06:37:42;;;;;;;15.95;5.13;;;;;;;22.18;54.57;99473.22;4979000;28;20078;-47
2022/11/18 06:40:08;;;;;;;10.05;3.28;;;;;;;22.20;54.57;99473.13;4974321;28;20062;-47
2022/11/18 06:45:18;;;;;;;15.30;5.68;;;;;;;22.21;54.69;99480.88;4979531;28;20076;-48
2022/11/18 06:47:43;;;;;;;12.25;4.70;;;;;;;22.21;54.71;99478.25;4978372;28;20046;-48
2022/11/18 06:50:09;;;;;;;14.68;4.95;;;;;;;22.22;54.72;99485.22;4987436;28;20074;-49
2022/11/18 06:52:34;;;;;;;16.05;5.05;;;;;;;22.23;54.64;99481.59;4982874;28;20050;-49
2022/11/18 06:54:59;;;;;;;12.35;4.40;;;;;;;22.25;54.74;99492.03;4978203;28;20551;-51
2022/11/18 06:57:25;;;;;;;17.63;6.53;;;;;;;22.29;54.95;99496.13;4977931;28;20092;-47
2022/11/18 06:59:50;;;;;;;10.35;4.28;;;;;;;22.32;55.05;99495.88;4975527;28;20046;-45
2022/11/18 07:02:17;;;;;;;14.20;4.13;;;;;;;22.37;55.20;99501.63;4977810;28;20121;-48
2022/11/18 07:04:43;;;;;;;14.80;5.05;;;;;;;22.43;55.39;99501.19;4977971;28;20070;-47
2022/11/18 07:07:09;;;;;;;17.42;5.68;;;;;;;22.49;55.69;99510.41;4977625;28;20109;-45
2022/11/18 07:09:35;;;;;;;15.90;5.63;;;;;;;22.54;55.67;99513.50;4977903;28;20034;-45
2022/11/18 07:12:01;;;;;;;16.95;6.03;;;;;;;22.59;55.82;99520.09;4976983;28;20050;-47
2022/11/18 07:14:26;;;;;;;13.82;4.03;;;;;;;22.62;56.02;99522.50;4978285;28;20046;-46
2022/11/18 07:16:52;;;;;;;17.77;7.10;;;;;;;22.65;56.14;99526.72;4974300;28;20046;-48
2022/11/18 07:19:17;;;;;;;17.75;6.95;;;;;;;22.68;56.27;99532.56;4976226;28;20046;-47
2022/11/18 07:21:43;;;;;;;14.65;5.45;;;;;;;22.70;56.38;99535.09;4973330;28;20030;-45
2022/11/18 07:24:12;;;;;;;9.10;3.45;;;;;;;22.74;56.28;99541.81;4981696;28;20133;-48
2022/11/18 07:26:38;;;;;;;9.85;4.30;;;;;;;22.76;56.26;99545.16;4973283;28;20129;-47
2022/11/18 07:29:03;;;;;;;31.02;4.95;;;;;;;22.77;56.38;99547.66;4977364;28;20042;-48
2022/11/18 07:31:29;;;;;;;18.88;5.53;;;;;;;22.81;56.41;99556.16;4980051;28;20454;-47
2022/11/18 07:33:54;;;;;;;22.77;6.47;;;;;;;22.81;56.55;99554.38;4984713;28;20543;-49
2022/11/18 07:36:22;;;;;;;10.55;4.28;;;;;;;22.83;56.66;99557.72;4980264;28;20796;-47
2022/11/18 07:38:48;;;;;;;15.30;4.80;;;;;;;22.88;56.63;99565.28;4980962;28;20496;-50
2022/11/18 07:41:15;;;;;;;20.23;7.55;;;;;;;22.90;56.68;99564.19;4973275;28;20038;-47
2022/11/18 07:43:41;;;;;;;16.08;4.22;;;;;;;22.93;56.59;99563.13;4988059;28;20034;-47
2022/11/18 07:46:20;;;;;;;20.50;5.47;;;;;;;22.94;56.63;99567.44;4997257;28;20044;-48
2022/11/18 07:48:48;;;;;;;10.25;3.47;;;;;;;22.95;56.67;99577.00;4998984;28;20116;-48
2022/11/18 07:51:15;;;;;;;17.25;5.22;;;;;;;22.96;56.63;99577.84;4996511;28;20517;-46
2022/11/18 07:53:41;;;;;;;20.50;6.72;;;;;;;22.96;56.76;99572.56;4995454;28;20455;-46
2022/11/18 07:56:08;;;;;;;17.80;5.47;;;;;;;22.98;56.64;99582.03;4997385;28;20034;-49
2022/11/18 07:58:33;;;;;;;17.08;4.80;;;;;;;22.99;56.46;99582.88;5003914;28;20033;-51
2022/11/18 08:01:26;;;;;;;22.38;5.53;;;;;;;22.99;56.58;99581.09;4996930;28;20046;-47
2022/11/18 08:03:51;;;;;;;15.82;5.00;;;;;;;23.01;56.58;99594.13;5001991;28;20072;-48
2022/11/18 08:06:18;;;;;;;20.83;5.70;;;;;;;23.01;56.54;99599.41;4995661;28;20136;-51
2022/11/18 08:08:44;;;;;;;14.80;4.70;;;;;;;23.02;56.43;99599.28;4996357;28;20702;-52
2022/11/18 08:11:13;;;;;;;19.02;5.70;;;;;;;23.05;56.37;99601.69;5004066;28;20052;-50
2022/11/18 08:13:39;;;;;;;17.35;5.40;;;;;;;23.06;56.29;99602.53;5000114;28;20168;-47
2022/11/18 08:16:12;;;;;;;19.20;5.22;;;;;;;23.06;56.24;99603.38;5001031;28;20041;-50
2022/11/18 08:18:37;;;;;;;18.65;6.30;;;;;;;23.08;56.29;99608.53;4999521;28;20037;-47
2022/11/18 08:21:03;;;;;;;17.40;5.18;;;;;;;23.09;56.36;99610.22;4995876;28;20040;-47
2022/11/18 08:23:29;;;;;;;16.92;6.75;;;;;;;23.09;56.30;99612.84;4992326;28;20153;-49
2022/11/18 08:26:04;;;;;;;16.33;4.95;;;;;;;23.10;56.25;99617.97;4994930;28;20037;-45
2022/11/18 08:28:29;;;;;;;17.33;5.53;;;;;;;23.12;56.22;99617.88;4996983;28;20060;-53
2022/11/18 08:30:55;;;;;;;19.38;7.25;;;;;;;23.12;56.31;99621.34;4994226;28;21598;-50
2022/11/18 08:33:20;;;;;;;22.63;7.10;;;;;;;23.12;56.38;99624.00;4997364;28;20506;-48
2022/11/18 08:35:45;;;;;;;14.57;4.63;;;;;;;23.14;56.29;99622.06;4994155;28;20091;-46
2022/11/18 08:38:11;;;;;;;19.42;5.57;;;;;;;23.15;56.38;99630.81;4995437;28;20033;-45
2022/11/18 08:40:38;;;;;;;38.72;10.02;;;;;;;23.15;56.17;99636.94;4990865;28;20514;-47
2022/11/18 08:43:03;;;;;;;17.25;5.60;;;;;;;23.14;56.31;99632.63;4995785;28;20050;-49
2022/11/18 08:45:28;;;;;;;27.63;11.70;;;;;;;23.16;56.30;99641.22;4995770;28;20033;-52
2022/11/18 08:47:54;;;;;;;22.60;7.75;;;;;;;23.18;56.16;99643.81;4987734;28;20038;-48
2022/11/18 08:50:22;;;;;;;17.00;4.85;;;;;;;23.19;56.29;99645.44;4994163;28;20066;-50
2022/11/18 08:52:48;;;;;;;17.73;5.22;;;;;;;23.19;56.15;99654.22;4998435;28;20140;-46
2022/11/18 08:55:13;;;;;;;12.70;4.13;;;;;;;23.21;56.12;99656.75;4997342;28;20072;-44
2022/11/18 08:57:38;;;;;;;19.67;5.65;;;;;;;23.21;56.29;99654.09;4995891;28;20041;-46
2022/11/18 09:00:04;;;;;;;17.60;6.00;;;;;;;23.22;56.12;99655.75;4999073;28;20035;-49
2022/11/18 09:02:30;;;;;;;21.27;5.97;;;;;;;23.23;56.12;99653.03;4991693;28;20418;-43
2022/11/18 09:04:55;;;;;;;17.55;4.97;;;;;;;23.24;56.07;99649.44;4991054;28;20030;-45
2022/11/18 09:07:21;;;;;;;19.00;5.32;;;;;;;23.26;56.20;99657.22;4991552;28;20117;-47
2022/11/18 09:09:46;;;;;;;17.70;5.40;;;;;;;23.26;56.08;99644.88;4992644;28;20129;-45
2022/11/18 09:12:13;;;;;;;18.73;5.10;;;;;;;23.27;56.00;99646.53;4990039;28;20049;-46
2022/11/18 09:14:43;;;;;;;18.50;5.30;;;;;;;23.27;56.11;99645.72;4993339;28;20050;-46
2022/11/18 09:17:08;;;;;;;18.88;5.78;;;;;;;23.28;56.21;99650.00;4994968;28;20038;-45
2022/11/18 09:19:34;;;;;;;17.40;5.55;;;;;;;23.29;55.90;99655.19;4999105;28;20045;-46
2022/11/18 09:22:00;;;;;;;15.65;4.70;;;;;;;23.30;56.10;99659.47;4998498;28;20038;-47
2022/11/18 09:24:25;;;;;;;12.60;3.95;;;;;;;23.31;55.95;99662.97;4995452;28;20033;-44
2022/11/18 09:26:52;;;;;;;16.15;5.05;;;;;;;23.32;55.95;99662.84;4997974;28;20033;-48
2022/11/18 09:29:18;;;;;;;18.27;7.15;;;;;;;23.32;55.95;99667.28;5001312;28;20048;-47
2022/11/18 09:31:44;;;;;;;17.00;4.50;;;;;;;23.32;55.63;99672.56;4999845;28;20388;-50
2022/11/18 09:34:10;;;;;;;16.05;4.75;;;;;;;23.25;55.80;99674.81;4997823;28;20112;-53
2022/11/18 09:36:35;;;;;;;17.38;5.78;;;;;;;23.20;55.73;99682.25;4997740;28;20045;-52
2022/11/18 09:39:01;;;;;;;18.55;5.65;;;;;;;23.16;55.75;99679.94;4998733;28;20610;-49
2022/11/18 09:41:45;;;;;;;13.43;5.13;;;;;;;23.11;55.82;99682.94;5001737;28;20034;-48
2022/11/18 09:44:52;;;;;;;18.33;6.18;;;;;;;23.06;55.81;99694.78;4996617;28;20208;-48
2022/11/18 09:47:25;;;;;;;13.13;4.93;;;;;;;23.01;55.62;99696.91;4974673;28;20034;-47
2022/11/18 09:49:52;;;;;;;14.10;4.43;;;;;;;22.98;55.75;99700.63;4990825;28;20038;-49
2022/11/18 09:52:43;;;;;;;13.98;4.70;;;;;;;22.97;55.55;99701.63;4994990;28;20129;-46
2022/11/18 09:55:14;;;;;;;16.17;4.85;;;;;;;22.96;55.68;99714.88;4993701;28;20037;-48
2022/11/18 09:57:46;;;;;;;23.13;6.65;;;;;;;22.95;55.80;99711.41;4997855;28;20029;-46
2022/11/18 10:00:26;;;;;;;18.45;5.95;;;;;;;22.95;55.67;99710.59;5000852;28;20140;-45
2022/11/18 10:02:51;;;;;;;19.30;6.00;;;;;;;22.93;55.68;99710.69;4999130;28;20511;-45
2022/11/18 10:05:23;;;;;;;18.83;5.50;;;;;;;22.91;55.64;99715.25;4995647;28;20050;-48
2022/11/18 10:08:00;;;;;;;19.20;5.07;;;;;;;22.90;55.63;99726.75;4997273;28;20533;-48
2022/11/18 10:10:41;;;;;;;20.13;5.47;;;;;;;22.94;55.41;99720.28;4999715;28;20101;-45
2022/11/18 10:13:19;;;;;;;14.93;4.97;;;;;;;22.99;55.34;99718.13;4994577;28;20088;-46
2022/11/18 10:16:11;;;;;;;18.13;5.97;;;;;;;23.04;55.11;99721.25;4998709;28;20060;-47
2022/11/18 10:18:47;;;;;;;19.75;5.70;;;;;;;23.08;55.03;99725.34;5000240;28;20033;-46
2022/11/18 10:21:28;;;;;;;17.40;6.85;;;;;;;23.11;54.93;99725.13;4993556;28;20021;-49
2022/11/18 10:24:07;;;;;;;18.48;5.57;;;;;;;23.12;54.82;99731.22;4995758;28;20049;-50
2022/11/18 10:26:34;;;;;;;15.52;4.38;;;;;;;23.12;54.76;99732.09;4995582;28;20799;-46
2022/11/18 10:29:00;;;;;;;22.10;6.15;;;;;;;23.14;54.82;99731.94;4998436;28;20041;-49
2022/11/18 10:31:26;;;;;;;19.67;5.65;;;;;;;23.14;54.60;99735.44;5001491;28;20041;-48
2022/11/18 10:33:59;;;;;;;18.17;5.03;;;;;;;23.16;54.82;99733.50;5000866;28;20053;-48
2022/11/18 10:36:31;;;;;;;12.85;4.30;;;;;;;23.18;54.97;99738.72;4999784;28;20054;-46
2022/11/18 10:39:09;;;;;;;26.75;8.52;;;;;;;23.28;54.82;99737.03;4992568;28;20041;-46
2022/11/18 10:41:40;;;;;;;19.77;5.93;;;;;;;23.29;54.77;99736.94;4997075;28;20033;-46
2022/11/18 10:44:44;;;;;;;17.33;5.13;;;;;;;23.30;54.92;99746.50;5001140;28;20526;-47
2022/11/18 10:47:31;;;;;;;17.67;5.32;;;;;;;23.31;55.06;99745.56;5007066;28;21443;-50
2022/11/18 10:50:20;;;;;;;18.23;5.47;;;;;;;23.32;55.09;99741.13;4991119;28;20153;-46
2022/11/18 10:52:52;;;;;;;17.92;6.13;;;;;;;23.36;55.24;99742.56;4994134;28;20030;-46
2022/11/18 10:55:23;;;;;;;23.02;7.03;;;;;;;23.35;55.16;99741.72;4991091;28;20074;-46
2022/11/18 10:58:00;;;;;;;16.17;4.85;;;;;;;23.35;55.29;99741.72;4994506;28;20053;-48
2022/11/18 11:00:48;;;;;;;18.25;5.28;;;;;;;23.38;55.10;99748.56;4993240;28;20518;-46
2022/11/18 11:03:25;;;;;;;20.25;5.63;;;;;;;23.39;55.28;99743.16;4994385;28;20060;-46
2022/11/18 11:06:24;;;;;;;19.05;5.75;;;;;;;23.40;54.93;99744.84;4996546;28;20527;-47
2022/11/18 11:08:55;;;;;;;20.08;5.28;;;;;;;23.41;54.89;99749.16;4997853;28;20073;-50
2022/11/18 11:11:32;;;;;;;19.05;5.10;;;;;;;23.42;54.91;99748.19;4998345;28;20132;-46
2022/11/18 11:14:19;;;;;;;19.65;5.47;;;;;;;23.41;54.60;99741.25;4994964;28;20049;-47
2022/11/18 11:16:52;;;;;;;21.13;4.95;;;;;;;23.42;54.44;99745.56;4996800;28;20099;-48
2022/11/18 11:19:21;;;;;;;26.23;7.40;;;;;;;23.42;54.39;99748.19;4998344;28;20042;-49
2022/11/18 11:21:47;;;;;;;15.63;4.57;;;;;;;23.44;54.36;99742.81;4993479;28;20144;-47
2022/11/18 11:24:12;;;;;;;21.50;7.50;;;;;;;23.45;54.60;99747.16;4996706;28;20053;-47
2022/11/18 11:27:06;;;;;;;17.15;5.50;;;;;;;23.47;54.37;99745.22;4996395;28;20762;-47
2022/11/18 11:30:04;;;;;;;17.48;5.22;;;;;;;23.47;54.03;99745.22;4994508;28;20034;-48
2022/11/18 11:32:30;;;;;;;17.33;5.50;;;;;;;23.47;53.96;99741.72;4994153;28;20041;-44
2022/11/18 11:35:20;;;;;;;18.02;5.30;;;;;;;23.44;53.88;99748.09;5000006;28;20056;-47
2022/11/18 11:37:58;;;;;;;19.00;5.13;;;;;;;23.38;53.68;99745.94;4993939;28;20034;-47
2022/11/18 11:40:30;;;;;;;32.70;8.82;;;;;;;23.33;53.96;99750.72;4984528;28;20100;-49
2022/11/18 11:43:05;;;;;;;20.38;6.50;;;;;;;23.26;54.01;99742.44;4987977;28;20037;-49
2022/11/18 11:45:30;;;;;;;;;;;;;;;23.21;54.08;99752.50;4991119;28;20557;-49
2022/11/18 11:48:17;;;;;;;16.83;5.28;;;;;;;23.17;53.68;99756.28;4992850;28;20370;-47
2022/11/18 11:50:54;;;;;;;13.98;5.07;;;;;;;23.11;54.28;99756.75;4998807;28;20149;-49